Orbital elements of FENGYUN 1C DEB
| Launched | 9 May 1999 |
| Flight ended | – |
| Launch site | Taiyuan Space Center, PRC |
| Owner | People's Republic of China |
| NORAD ID | 33678 |
| Date fetched |
Epoch osculation |
Inc. [°] |
Ecc. | RA asc node [hr] |
Arg Peri. [°] |
Mean anom [°] |
Mean motion [rev/day] |
Abs. mag |
| Date fetched |
Epoch osculation |
Inc. [°] |
Ecc. | RA asc node [hr] |
Arg Peri. [°] |
Mean anom [°] |
Mean motion [rev/day] |
Abs. mag |
| 2026 May 09 17:57 | 2026 May 03 22:36:54 | 99.0247 | 0.02040 | 13.6125 | 171.7927 | 188.6686 | 14.48001 | – |
| 2026 May 08 17:57 | 2026 May 03 22:36:54 | 99.0247 | 0.02040 | 13.6125 | 171.7927 | 188.6686 | 14.48001 | – |
| 2026 May 07 17:58 | 2026 May 03 22:36:54 | 99.0247 | 0.02040 | 13.6125 | 171.7927 | 188.6686 | 14.48001 | – |
| 2026 May 06 17:57 | 2026 May 03 22:36:54 | 99.0247 | 0.02040 | 13.6125 | 171.7927 | 188.6686 | 14.48001 | – |
| 2026 May 05 17:57 | 2026 May 03 22:36:54 | 99.0247 | 0.02040 | 13.6125 | 171.7927 | 188.6686 | 14.48001 | – |
| 2026 May 04 17:57 | 2026 Apr 28 23:12:21 | 99.0240 | 0.02038 | 13.2582 | 186.6378 | 188.6686 | 14.48001 | – |
| 2026 May 03 17:57 | 2026 Apr 28 23:12:21 | 99.0240 | 0.02038 | 13.2582 | 186.6378 | 188.6686 | 14.48001 | – |
| 2026 May 02 17:57 | 2026 Apr 28 23:12:21 | 99.0240 | 0.02038 | 13.2582 | 186.6378 | 188.6686 | 14.48001 | – |
| 2026 May 01 17:56 | 2026 Apr 28 23:12:21 | 99.0240 | 0.02038 | 13.2582 | 186.6378 | 188.6686 | 14.48001 | – |
| 2026 Apr 30 17:56 | 2026 Apr 28 23:12:21 | 99.0240 | 0.02038 | 13.2582 | 186.6378 | 188.6686 | 14.48001 | – |
| 2026 Apr 29 17:57 | 2026 Apr 22 22:55:03 | 99.0241 | 0.02034 | 12.8301 | 204.5948 | 188.6686 | 14.48001 | – |
| 2026 Apr 28 17:56 | 2026 Apr 22 22:55:03 | 99.0241 | 0.02034 | 12.8301 | 204.5948 | 188.6686 | 14.48001 | – |
| 2026 Apr 27 17:58 | 2026 Apr 22 22:55:03 | 99.0241 | 0.02034 | 12.8301 | 204.5948 | 188.6686 | 14.48001 | – |
| 2026 Apr 26 17:58 | 2026 Apr 22 22:55:03 | 99.0241 | 0.02034 | 12.8301 | 204.5948 | 188.6686 | 14.48001 | – |
| 2026 Apr 25 17:58 | 2026 Apr 22 22:55:03 | 99.0241 | 0.02034 | 12.8301 | 204.5948 | 188.6686 | 14.48001 | – |
| 2026 Apr 24 17:59 | 2026 Apr 22 22:55:03 | 99.0241 | 0.02034 | 12.8301 | 204.5948 | 188.6686 | 14.48001 | – |
| 2026 Apr 23 17:57 | 2026 Apr 18 22:43:27 | 99.0242 | 0.02033 | 12.5448 | 216.5984 | 188.6686 | 14.48001 | – |
| 2026 Apr 22 17:57 | 2026 Apr 18 22:43:27 | 99.0242 | 0.02033 | 12.5448 | 216.5984 | 188.6686 | 14.48001 | – |
| 2026 Apr 21 17:57 | 2026 Apr 18 22:43:27 | 99.0242 | 0.02033 | 12.5448 | 216.5984 | 188.6686 | 14.48001 | – |
| 2026 Apr 20 17:57 | 2026 Apr 18 22:43:27 | 99.0242 | 0.02033 | 12.5448 | 216.5984 | 188.6686 | 14.48001 | – |
| 2026 Apr 19 17:58 | 2026 Apr 18 22:43:27 | 99.0242 | 0.02033 | 12.5448 | 216.5984 | 188.6686 | 14.48001 | – |
| 2026 Apr 18 17:56 | 2026 Apr 12 10:49:28 | 99.0246 | 0.02029 | 12.0823 | 236.0746 | 188.6686 | 14.48001 | – |
| 2026 Apr 16 17:57 | 2026 Apr 12 10:49:28 | 99.0246 | 0.02029 | 12.0823 | 236.0746 | 188.6686 | 14.48001 | – |
| 2026 Apr 14 17:57 | 2026 Apr 12 10:49:28 | 99.0246 | 0.02029 | 12.0823 | 236.0746 | 188.6686 | 14.48001 | – |
| 2026 Apr 13 17:57 | 2026 Apr 12 10:49:28 | 99.0246 | 0.02029 | 12.0823 | 236.0746 | 188.6686 | 14.48001 | – |
| 2026 Apr 12 17:57 | 2026 Apr 02 11:59:52 | 99.0257 | 0.02024 | 11.3737 | 265.9670 | 188.6686 | 14.48001 | – |